Sekiu, WA

7:21 PM PST on February 07, 2016 (GMT -0800)
Curley's Resort & Dive Center | | Change Station
CLOSE
Current Station
Personal Weather Station
Location: Sekiu, WA
Elevation: 12 ft
Nearby Weather Stations

Elev 12 ft 48.26 °N, 124.30 °W | Updated 177 days ago

Partly Cloudy
Partly Cloudy
44 °F
Feels Like 41 °F
N
7
Wind Variable Wind from ENE
Gusts mph

Today
High -- | Low -- °F
--% Chance of Precip.
Yesterday
High -- | Low -- °F
Precip. -- in
Pressure 30.48 in
Visibility 10.0 miles
Clouds Few 5000 ft
Overcast 6500 ft
Windchill 41 °F
Dew Point 38 °F
Humidity 79%
Rainfall in
Snow Depth Not available.
7:37 AM 5:25 PM
Waning Crescent, 0% visible
METAR KUIL 080253Z AUTO 06004KT 10SM FEW050 OVC065 09/05 A3047 RMK AO2 SLP319 T00940050 58002
Pressure 30.48 in
Visibility 10.0 miles
Clouds Few 5000 ft
Overcast 6500 ft
Windchill 41 °F
Dew Point 38 °F
Humidity 79%
Rainfall in
Snow Depth Not available.
7:37 AM 5:25 PM
Waning Crescent, 0% visible
METAR KUIL 080253Z AUTO 06004KT 10SM FEW050 OVC065 09/05 A3047 RMK AO2 SLP319 T00940050 58002

10-Day Weather Forecast

Almanac

Astronomy

Feb. 07, 2016 Rise Set
Actual Time
Civil Twilight
Nautical Twilight
Astronomical Twilight
Moon
Length of Visible Light
Length of Day
Tomorrow will be .
, % of the Moon is Illuminated

Today's Extremes

State Highs State Lows

Community

WunderPhotos

Upload Photos

1,891,377 photos uploaded!

WunderBlog® & News

Nearby

Air Quality

  Air Quality AQ Index Pollutant
Not available.

Snow Depth

Station Depth Elevation

Earthquake Activity

City Distance Mag. Time & Date
Minimum magnitude displayed is 2.5.

Coastal Water Temperatures

Place Temperature

Stations

Nearby Weather Stations

Station Location Temp. Windchill Dew Point Humidity Wind Precip. Elev Updated Type
                   

Watches & Warnings

There are currently no watches in effect.